createdAt,value
2024-02-12T00:01:42.201Z,11.64
2024-02-12T00:04:09.101Z,11.65
2024-02-12T00:06:36.294Z,11.65
2024-02-12T00:09:06.560Z,11.64
2024-02-12T00:11:33.219Z,11.64
2024-02-12T00:14:01.211Z,11.65
2024-02-12T00:16:27.714Z,11.63
2024-02-12T00:18:54.344Z,11.63
2024-02-12T00:21:20.857Z,11.61
2024-02-12T00:23:47.834Z,11.59
2024-02-12T00:26:15.313Z,11.56
2024-02-12T00:28:42.606Z,11.53
2024-02-12T00:31:10.340Z,11.51
2024-02-12T00:33:37.190Z,11.49
2024-02-12T00:36:05.073Z,11.46
2024-02-12T00:38:31.571Z,11.44
2024-02-12T00:40:58.866Z,11.41
2024-02-12T00:43:27.966Z,11.40
2024-02-12T00:45:55.517Z,11.39
2024-02-12T00:48:22.128Z,11.38
2024-02-12T00:50:49.344Z,11.38
2024-02-12T00:53:16.368Z,11.38
2024-02-12T00:55:43.000Z,11.38
2024-02-12T00:58:10.801Z,11.38
2024-02-12T01:00:37.399Z,11.38
2024-02-12T01:03:05.391Z,11.40
2024-02-12T01:05:31.896Z,11.39
2024-02-12T01:07:58.368Z,11.38
2024-02-12T01:10:24.841Z,11.38
2024-02-12T01:12:51.802Z,11.36
2024-02-12T01:15:18.275Z,11.33
2024-02-12T01:17:50.834Z,11.30
2024-02-12T01:20:20.709Z,11.24
2024-02-12T01:22:47.277Z,11.19
2024-02-12T01:25:13.831Z,11.14
2024-02-12T01:27:40.633Z,11.10
2024-02-12T01:30:07.769Z,11.07
2024-02-12T01:32:35.276Z,11.03
2024-02-12T01:35:01.935Z,10.98
2024-02-12T01:37:28.707Z,10.95
2024-02-12T01:39:55.257Z,10.92
2024-02-12T01:42:22.183Z,10.89
2024-02-12T01:44:58.460Z,10.86
2024-02-12T01:47:25.773Z,10.83
2024-02-12T01:49:53.703Z,10.77
2024-02-12T01:52:20.691Z,10.75
2024-02-12T01:54:50.827Z,10.72
2024-02-12T01:57:18.807Z,10.69
2024-02-12T01:59:45.253Z,10.67
2024-02-12T02:02:15.995Z,10.66
2024-02-12T02:04:43.393Z,10.64
2024-02-12T02:07:23.056Z,10.64
2024-02-12T02:09:51.658Z,10.64
2024-02-12T02:12:18.192Z,10.64
2024-02-12T02:14:45.686Z,10.65
2024-02-12T02:17:13.708Z,10.67
2024-02-12T02:19:40.782Z,10.67
2024-02-12T02:22:09.336Z,10.67
2024-02-12T02:24:35.748Z,10.68
2024-02-12T02:27:02.192Z,10.68
2024-02-12T02:29:28.668Z,10.70
2024-02-12T02:31:55.198Z,10.71
2024-02-12T02:34:22.049Z,10.73
2024-02-12T02:36:49.726Z,10.75
2024-02-12T02:39:16.256Z,10.76
2024-02-12T02:41:47.213Z,10.79
2024-02-12T02:44:15.170Z,10.81
2024-02-12T02:46:42.173Z,10.82
2024-02-12T02:49:09.159Z,10.82
2024-02-12T02:51:38.889Z,10.83
2024-02-12T02:54:09.262Z,10.83
2024-02-12T02:56:35.710Z,10.81
2024-02-12T02:59:02.280Z,10.77
2024-02-12T03:01:29.359Z,10.74
2024-02-12T03:03:56.931Z,10.69
2024-02-12T03:06:25.035Z,10.64
2024-02-12T03:08:51.795Z,10.58
2024-02-12T03:11:20.104Z,10.52
2024-02-12T03:13:46.828Z,10.47
2024-02-12T03:16:17.185Z,10.46
2024-02-12T03:18:47.062Z,10.42
2024-02-12T03:21:20.136Z,10.42
2024-02-12T03:23:48.542Z,10.41
2024-02-12T03:26:18.194Z,10.43
2024-02-12T03:28:44.757Z,10.44
2024-02-12T03:31:11.875Z,10.45
2024-02-12T03:33:38.447Z,10.47
2024-02-12T03:36:05.530Z,10.49
2024-02-12T03:38:32.871Z,10.52
2024-02-12T03:40:59.471Z,10.54
2024-02-12T03:43:26.330Z,10.57
2024-02-12T03:45:56.593Z,10.59
2024-02-12T03:48:42.959Z,10.61
2024-02-12T03:51:28.784Z,10.63
2024-02-12T03:54:13.660Z,10.64
2024-02-12T03:56:58.496Z,10.64
2024-02-12T03:59:43.473Z,10.64
2024-02-12T04:02:11.182Z,10.63
2024-02-12T04:04:39.547Z,10.63
2024-02-12T04:07:06.579Z,10.61
2024-02-12T04:09:33.994Z,10.61
2024-02-12T04:12:00.423Z,10.63
2024-02-12T04:14:26.968Z,10.62
2024-02-12T04:16:53.524Z,10.63
2024-02-12T04:19:22.761Z,10.63
2024-02-12T04:21:53.280Z,10.65
2024-02-12T04:24:20.465Z,10.65
2024-02-12T04:26:47.645Z,10.65
2024-02-12T04:29:15.871Z,10.66
2024-02-12T04:31:42.951Z,10.67
2024-02-12T04:34:09.884Z,10.68
2024-02-12T04:36:43.227Z,10.69
2024-02-12T04:39:17.299Z,10.70
2024-02-12T04:41:47.360Z,10.70
2024-02-12T04:44:14.175Z,10.72
2024-02-12T04:46:42.871Z,10.70
2024-02-12T04:49:10.009Z,10.71
2024-02-12T04:51:39.898Z,10.71
2024-02-12T04:54:06.416Z,10.71
2024-02-12T04:56:33.141Z,10.71
2024-02-12T04:59:00.247Z,10.70
2024-02-12T05:01:30.054Z,10.70
2024-02-12T05:03:56.728Z,10.68
2024-02-12T05:06:23.832Z,10.67
2024-02-12T05:08:51.852Z,10.66
2024-02-12T05:11:18.494Z,10.65
2024-02-12T05:13:45.124Z,10.65
2024-02-12T05:16:12.432Z,10.66
2024-02-12T05:18:59.441Z,10.65
2024-02-12T05:21:44.948Z,10.64
2024-02-12T05:24:11.457Z,10.65
2024-02-12T05:26:40.117Z,10.65
2024-02-12T05:29:08.170Z,10.63
2024-02-12T05:31:36.951Z,10.63
2024-02-12T05:34:04.368Z,10.64
2024-02-12T05:36:31.784Z,10.63
2024-02-12T05:38:58.389Z,10.63
2024-02-12T05:41:25.123Z,10.65
2024-02-12T05:43:54.139Z,10.64
2024-02-12T05:46:20.848Z,10.65
2024-02-12T05:48:48.690Z,10.66
2024-02-12T05:51:15.711Z,10.66
2024-02-12T05:53:42.640Z,10.66
2024-02-12T05:56:09.268Z,10.67
2024-02-12T05:58:36.520Z,10.68
2024-02-12T06:01:03.686Z,10.69
2024-02-12T06:03:30.226Z,10.69
2024-02-12T06:05:57.631Z,10.71
2024-02-12T06:08:24.394Z,10.72
2024-02-12T06:10:50.974Z,10.71
2024-02-12T06:13:20.886Z,10.71
2024-02-12T06:15:47.513Z,10.73
2024-02-12T06:18:14.024Z,10.73
2024-02-12T06:20:40.968Z,10.74
2024-02-12T06:23:07.433Z,10.75
2024-02-12T06:25:34.206Z,10.77
2024-02-12T06:28:03.624Z,10.77
2024-02-12T06:30:30.042Z,10.78
2024-02-12T06:32:56.612Z,10.80
2024-02-12T06:35:24.482Z,10.81
2024-02-12T06:37:51.005Z,10.82
2024-02-12T06:40:17.413Z,10.82
2024-02-12T06:42:43.834Z,10.83
2024-02-12T06:45:10.918Z,10.83
2024-02-12T06:47:37.465Z,10.83
2024-02-12T06:50:07.279Z,10.85
2024-02-12T06:52:34.470Z,10.83
2024-02-12T06:55:01.141Z,10.83
2024-02-12T06:57:27.749Z,10.82
2024-02-12T06:59:54.174Z,10.82
2024-02-12T07:02:20.680Z,10.81
2024-02-12T07:04:48.688Z,10.82
2024-02-12T07:07:15.700Z,10.82
2024-02-12T07:09:42.114Z,10.80
2024-02-12T07:12:17.560Z,10.81
2024-02-12T07:14:44.867Z,10.81
2024-02-12T07:17:12.469Z,10.78
2024-02-12T07:19:38.907Z,10.78
2024-02-12T07:22:05.318Z,10.77
2024-02-12T07:24:31.776Z,10.77
2024-02-12T07:26:58.210Z,10.76
2024-02-12T07:29:24.667Z,10.76
2024-02-12T07:31:51.096Z,10.77
2024-02-12T07:34:18.155Z,10.79
2024-02-12T07:36:47.601Z,10.80
2024-02-12T07:39:17.627Z,10.82
2024-02-12T07:41:44.413Z,10.85
2024-02-12T07:44:11.820Z,10.86
2024-02-12T07:46:39.518Z,10.88
2024-02-12T07:49:07.224Z,10.90
2024-02-12T07:51:33.846Z,10.93
2024-02-12T07:54:00.291Z,10.95
2024-02-12T07:56:27.604Z,10.96
2024-02-12T07:58:55.803Z,10.98
2024-02-12T08:01:22.267Z,11.01
2024-02-12T08:03:49.940Z,11.04
2024-02-12T08:06:16.802Z,11.04
2024-02-12T08:08:44.388Z,11.07
2024-02-12T08:11:10.823Z,11.09
2024-02-12T08:13:37.254Z,11.10
2024-02-12T08:16:05.030Z,11.13
2024-02-12T08:18:31.885Z,11.14
2024-02-12T08:20:58.548Z,11.16
2024-02-12T08:23:25.200Z,11.17
2024-02-12T08:25:53.896Z,11.16
2024-02-12T08:28:25.416Z,11.17
2024-02-12T08:30:52.432Z,11.16
2024-02-12T08:33:18.941Z,11.15
2024-02-12T08:35:45.539Z,11.14
2024-02-12T08:38:12.013Z,11.13
2024-02-12T08:40:39.132Z,11.13
2024-02-12T08:43:06.143Z,11.13
2024-02-12T08:45:32.912Z,11.12
2024-02-12T08:47:59.406Z,11.11
2024-02-12T08:50:25.987Z,11.10
2024-02-12T08:52:54.371Z,11.11
2024-02-12T08:55:20.968Z,11.12
2024-02-12T08:57:47.388Z,11.13
2024-02-12T09:00:15.127Z,11.16
2024-02-12T09:02:44.513Z,11.19
2024-02-12T09:05:14.508Z,11.21
2024-02-12T09:07:41.733Z,11.22
2024-02-12T09:10:10.308Z,11.24
2024-02-12T09:12:48.210Z,11.26
2024-02-12T09:15:20.861Z,11.28
2024-02-12T09:17:47.606Z,11.30
2024-02-12T09:20:15.825Z,11.30
2024-02-12T09:22:42.446Z,11.31
2024-02-12T09:25:14.436Z,11.34
2024-02-12T09:27:47.279Z,11.31
2024-02-12T09:30:16.621Z,11.30
2024-02-12T09:32:49.124Z,11.31
2024-02-12T09:35:18.991Z,11.34
2024-02-12T09:37:47.194Z,11.39
2024-02-12T09:40:16.132Z,11.42
2024-02-12T09:42:42.799Z,11.49
2024-02-12T09:45:12.683Z,11.54
2024-02-12T09:47:45.175Z,11.60
2024-02-12T09:50:14.121Z,11.68
2024-02-12T09:52:41.315Z,11.74
2024-02-12T09:55:08.207Z,11.82
2024-02-12T09:57:34.643Z,11.86
2024-02-12T10:00:02.001Z,11.92
2024-02-12T10:02:36.883Z,11.97
2024-02-12T10:05:09.094Z,11.99
2024-02-12T10:07:42.266Z,11.99
2024-02-12T10:10:10.042Z,11.97
2024-02-12T10:12:37.667Z,11.95
2024-02-12T10:15:05.688Z,11.93
2024-02-12T10:17:32.698Z,11.90
2024-02-12T10:19:59.486Z,11.86
2024-02-12T10:22:26.158Z,11.81
2024-02-12T10:24:52.651Z,11.78
2024-02-12T10:27:22.288Z,11.75
2024-02-12T10:30:08.220Z,11.73
2024-02-12T10:32:39.117Z,11.70
2024-02-12T10:35:12.593Z,11.68
2024-02-12T10:37:39.527Z,11.64
2024-02-12T10:40:13.997Z,11.62
2024-02-12T10:42:49.922Z,11.59
2024-02-12T10:45:18.249Z,11.54
2024-02-12T10:47:45.366Z,11.51
2024-02-12T10:50:14.418Z,11.47
2024-02-12T10:52:42.766Z,11.45
2024-02-12T10:55:10.944Z,11.43
2024-02-12T10:57:40.012Z,11.42
2024-02-12T11:00:07.256Z,11.40
2024-02-12T11:02:46.402Z,11.40
2024-02-12T11:05:13.527Z,11.39
2024-02-12T11:07:46.508Z,11.40
2024-02-12T11:10:25.223Z,11.41
2024-02-12T11:12:51.647Z,11.40
2024-02-12T11:15:28.816Z,11.41
2024-02-12T11:17:55.713Z,11.41
2024-02-12T11:20:23.305Z,11.41
2024-02-12T11:22:50.485Z,11.42
2024-02-12T11:25:22.940Z,11.42
2024-02-12T11:27:52.899Z,11.45
2024-02-12T11:30:20.644Z,11.48
2024-02-12T11:32:48.832Z,11.51
2024-02-12T11:35:19.389Z,11.56
2024-02-12T11:37:49.708Z,11.57
2024-02-12T11:40:20.363Z,11.60
2024-02-12T11:42:51.972Z,11.60
2024-02-12T11:45:19.699Z,11.61
2024-02-12T11:47:49.837Z,11.61
2024-02-12T11:50:25.791Z,11.62
2024-02-12T11:52:53.532Z,11.61
2024-02-12T11:55:20.144Z,11.60
2024-02-12T11:57:49.751Z,11.59
2024-02-12T12:00:21.317Z,11.58
2024-02-12T12:02:53.127Z,11.58
2024-02-12T12:05:27.562Z,11.57
2024-02-12T12:07:55.399Z,11.55
2024-02-12T12:10:27.761Z,11.56
2024-02-12T12:13:00.378Z,11.55
2024-02-12T12:15:31.839Z,11.57
2024-02-12T12:18:01.655Z,11.60
2024-02-12T12:20:31.439Z,11.63
2024-02-12T12:23:01.075Z,11.69
2024-02-12T12:25:27.726Z,11.72
2024-02-12T12:27:54.140Z,11.78
2024-02-12T12:30:20.899Z,11.82
2024-02-12T12:32:49.013Z,11.87
2024-02-12T12:35:16.913Z,11.90
2024-02-12T12:37:43.745Z,11.94
2024-02-12T12:40:20.396Z,11.98
2024-02-12T12:42:48.619Z,12.03
2024-02-12T12:45:16.642Z,12.07
2024-02-12T12:47:44.186Z,12.09
2024-02-12T12:50:11.506Z,12.13
2024-02-12T12:52:39.401Z,12.16
2024-02-12T12:55:11.989Z,12.18
2024-02-12T12:57:39.656Z,12.19
2024-02-12T13:00:16.743Z,12.18
2024-02-12T13:02:44.467Z,12.19
2024-02-12T13:05:13.171Z,12.21
2024-02-12T13:07:41.768Z,12.23
2024-02-12T13:10:40.294Z,12.27
2024-02-12T13:13:07.378Z,12.33
2024-02-12T13:15:34.281Z,12.36
2024-02-12T13:18:00.809Z,12.40
2024-02-12T13:20:28.431Z,12.43
2024-02-12T13:22:56.641Z,12.47
2024-02-12T13:25:32.972Z,12.50
2024-02-12T13:28:01.026Z,12.51
2024-02-12T13:30:30.953Z,12.54
2024-02-12T13:33:10.354Z,12.56
2024-02-12T13:35:39.173Z,12.56
2024-02-12T13:38:06.375Z,12.55
2024-02-12T13:40:33.831Z,12.56
2024-02-12T13:43:01.717Z,12.56
2024-02-12T13:45:28.337Z,12.57
2024-02-12T13:47:56.638Z,12.58
2024-02-12T13:50:24.330Z,12.58
2024-02-12T13:52:51.426Z,12.59
2024-02-12T13:55:18.070Z,12.59
2024-02-12T13:57:45.594Z,12.61
2024-02-12T14:00:37.575Z,12.63
2024-02-12T14:03:06.734Z,12.67
2024-02-12T14:05:33.512Z,12.70
2024-02-12T14:08:00.205Z,12.73
2024-02-12T14:10:27.725Z,12.77
2024-02-12T14:12:55.063Z,12.80
2024-02-12T14:16:01.737Z,12.84
2024-02-12T14:18:10.470Z,12.87
2024-02-12T14:20:37.347Z,12.89
2024-02-12T14:23:06.614Z,12.90
2024-02-12T14:25:34.804Z,12.90
2024-02-12T14:28:01.588Z,12.89
2024-02-12T14:30:30.062Z,12.88
2024-02-12T14:32:57.146Z,12.86
2024-02-12T14:35:25.750Z,12.84
2024-02-12T14:37:57.435Z,12.81
2024-02-12T14:40:24.631Z,12.79
2024-02-12T14:42:51.253Z,12.75
2024-02-12T14:45:17.855Z,12.73
2024-02-12T14:47:45.803Z,12.68
2024-02-12T14:50:13.513Z,12.65
2024-02-12T14:52:40.314Z,12.63
2024-02-12T14:55:08.437Z,12.60
2024-02-12T14:57:34.864Z,12.56
2024-02-12T15:00:01.326Z,12.55
2024-02-12T15:02:27.967Z,12.53
2024-02-12T15:04:55.801Z,12.52
2024-02-12T15:07:25.093Z,12.53
2024-02-12T15:09:51.499Z,12.53
2024-02-12T15:12:24.540Z,12.55
2024-02-12T15:14:52.064Z,12.59
2024-02-12T15:17:21.629Z,12.63
2024-02-12T15:19:49.217Z,12.67
2024-02-12T15:22:17.215Z,12.72
2024-02-12T15:24:43.751Z,12.76
2024-02-12T15:27:11.356Z,12.81
2024-02-12T15:29:43.162Z,12.86
2024-02-12T15:32:10.191Z,12.93
2024-02-12T15:34:38.176Z,12.99
2024-02-12T15:37:07.969Z,13.08
2024-02-12T15:39:35.112Z,13.16
2024-02-12T15:42:07.027Z,13.26
2024-02-12T15:44:34.080Z,13.32
2024-02-12T15:47:00.810Z,13.35
2024-02-12T15:49:29.182Z,13.37
2024-02-12T15:51:56.016Z,13.37
2024-02-12T15:54:23.714Z,13.37
2024-02-12T15:56:56.498Z,13.34
2024-02-12T15:59:24.134Z,13.30
2024-02-12T16:01:55.433Z,13.24
2024-02-12T16:04:24.835Z,13.16
2024-02-12T16:06:51.334Z,13.09
2024-02-12T16:09:19.336Z,13.02
2024-02-12T16:11:45.793Z,12.93
2024-02-12T16:14:12.757Z,12.88
2024-02-12T16:16:41.444Z,12.81
2024-02-12T16:19:07.881Z,12.75
2024-02-12T16:21:34.679Z,12.70
2024-02-12T16:24:01.195Z,12.66
2024-02-12T16:26:28.157Z,12.62
2024-02-12T16:28:59.206Z,12.58
2024-02-12T16:31:27.425Z,12.45
2024-02-12T16:33:54.138Z,12.25
2024-02-12T16:36:20.860Z,11.90
2024-02-12T16:38:47.343Z,11.52
2024-02-12T16:41:15.704Z,11.10
2024-02-12T16:43:42.994Z,10.65
2024-02-12T16:46:09.866Z,10.26
2024-02-12T16:48:39.770Z,9.91
2024-02-12T16:51:07.016Z,9.63
2024-02-12T16:53:34.352Z,9.44
2024-02-12T16:56:01.280Z,9.31
2024-02-12T16:58:28.334Z,9.23
2024-02-12T17:00:57.099Z,9.17
2024-02-12T17:03:23.509Z,9.14
2024-02-12T17:05:50.062Z,9.11
2024-02-12T17:08:17.127Z,9.11
2024-02-12T17:10:44.277Z,9.10
2024-02-12T17:13:14.623Z,9.12
2024-02-12T17:15:42.652Z,9.15
2024-02-12T17:18:10.683Z,9.19
2024-02-12T17:20:38.393Z,9.22
2024-02-12T17:23:05.687Z,9.27
2024-02-12T17:25:32.086Z,9.30
2024-02-12T17:27:58.642Z,9.34
2024-02-12T17:30:29.742Z,9.37
2024-02-12T17:32:57.703Z,9.40
2024-02-12T17:35:24.548Z,9.42
2024-02-12T17:37:51.033Z,9.43
2024-02-12T17:40:17.955Z,9.44
2024-02-12T17:42:44.528Z,9.44
2024-02-12T17:45:11.427Z,9.44
2024-02-12T17:47:41.402Z,9.44
2024-02-12T17:50:09.399Z,9.42
2024-02-12T17:52:36.061Z,9.40
2024-02-12T17:55:02.707Z,9.38
2024-02-12T17:57:29.133Z,9.36
2024-02-12T17:59:55.601Z,9.35
2024-02-12T18:02:22.109Z,9.34
2024-02-12T18:04:49.416Z,9.33
2024-02-12T18:07:15.907Z,9.31
2024-02-12T18:09:43.879Z,9.32
2024-02-12T18:12:11.479Z,9.29
2024-02-12T18:14:38.474Z,9.28
2024-02-12T18:17:05.980Z,9.28
2024-02-12T18:19:33.156Z,9.27
2024-02-12T18:22:00.121Z,9.25
2024-02-12T18:24:27.226Z,9.23
2024-02-12T18:26:53.711Z,9.22
2024-02-12T18:29:23.101Z,9.20
2024-02-12T18:31:49.632Z,9.20
2024-02-12T18:34:16.191Z,9.17
2024-02-12T18:36:42.611Z,9.15
2024-02-12T18:39:11.145Z,9.13
2024-02-12T18:41:37.807Z,9.11
2024-02-12T18:44:05.433Z,9.07
2024-02-12T18:46:32.183Z,9.05
2024-02-12T18:48:58.672Z,9.03
2024-02-12T18:51:25.282Z,9.02
2024-02-12T18:53:52.102Z,9.01
2024-02-12T18:56:20.510Z,9.00
2024-02-12T18:58:50.370Z,9.00
2024-02-12T19:01:19.304Z,9.00
2024-02-12T19:03:51.649Z,8.99
2024-02-12T19:06:19.375Z,9.00
2024-02-12T19:08:46.081Z,8.99
2024-02-12T19:11:14.911Z,8.99
2024-02-12T19:13:44.761Z,8.99
2024-02-12T19:16:12.466Z,8.98
2024-02-12T19:18:41.694Z,8.98
2024-02-12T19:21:08.136Z,8.98
2024-02-12T19:23:34.592Z,8.97
2024-02-12T19:26:01.038Z,8.96
2024-02-12T19:28:27.664Z,8.94
2024-02-12T19:30:55.481Z,8.91
2024-02-12T19:33:21.962Z,8.89
2024-02-12T19:35:49.122Z,8.86
2024-02-12T19:38:15.697Z,8.83
2024-02-12T19:40:42.195Z,8.81
2024-02-12T19:43:10.829Z,8.78
2024-02-12T19:45:37.529Z,8.78
2024-02-12T19:48:05.546Z,8.75
2024-02-12T19:50:32.227Z,8.73
2024-02-12T19:52:58.728Z,8.72
2024-02-12T19:55:25.375Z,8.67
2024-02-12T19:57:51.836Z,8.62
2024-02-12T20:00:18.671Z,8.57
2024-02-12T20:02:46.543Z,8.50
2024-02-12T20:05:13.294Z,8.46
2024-02-12T20:07:40.846Z,8.41
2024-02-12T20:10:12.429Z,8.39
2024-02-12T20:12:40.995Z,8.34
2024-02-12T20:15:12.021Z,8.30
2024-02-12T20:17:43.052Z,8.29
2024-02-12T20:20:10.536Z,8.26
2024-02-12T20:22:37.357Z,8.22
2024-02-12T20:25:04.924Z,8.20
2024-02-12T20:27:32.469Z,8.17
2024-02-12T20:29:59.848Z,8.13
2024-02-12T20:32:28.269Z,8.12
2024-02-12T20:34:55.245Z,8.09
2024-02-12T20:37:22.235Z,8.07
2024-02-12T20:39:51.649Z,8.05
2024-02-12T20:42:18.808Z,8.03
2024-02-12T20:44:45.875Z,8.02
2024-02-12T20:47:19.276Z,8.03
2024-02-12T20:49:46.748Z,8.05
2024-02-12T20:52:13.751Z,8.08
2024-02-12T20:54:40.264Z,8.10
2024-02-12T20:57:06.820Z,8.12
2024-02-12T20:59:33.489Z,8.14
2024-02-12T21:02:01.007Z,8.14
2024-02-12T21:04:27.441Z,8.16
2024-02-12T21:06:55.758Z,8.18
2024-02-12T21:09:22.252Z,8.19
2024-02-12T21:11:49.099Z,8.18
2024-02-12T21:14:15.700Z,8.17
2024-02-12T21:16:42.190Z,8.15
2024-02-12T21:19:08.629Z,8.12
2024-02-12T21:21:41.165Z,8.09
2024-02-12T21:24:10.844Z,8.06
2024-02-12T21:26:37.335Z,8.03
2024-02-12T21:29:05.371Z,8.01
2024-02-12T21:31:31.877Z,7.98
2024-02-12T21:33:59.569Z,7.94
2024-02-12T21:36:26.089Z,7.89
2024-02-12T21:38:52.672Z,7.85
2024-02-12T21:41:31.286Z,7.79
2024-02-12T21:43:57.876Z,7.73
2024-02-12T21:46:25.827Z,7.66
2024-02-12T21:48:53.665Z,7.60
2024-02-12T21:51:20.393Z,7.54
2024-02-12T21:53:46.914Z,7.47
2024-02-12T21:56:14.622Z,7.42
2024-02-12T21:58:41.275Z,7.36
2024-02-12T22:01:11.603Z,7.31
2024-02-12T22:03:38.695Z,7.24
2024-02-12T22:06:05.486Z,7.18
2024-02-12T22:08:32.090Z,7.13
2024-02-12T22:10:58.577Z,7.08
2024-02-12T22:13:25.216Z,7.02
2024-02-12T22:15:51.669Z,6.98
2024-02-12T22:18:18.245Z,6.92
2024-02-12T22:20:46.704Z,6.88
2024-02-12T22:23:13.774Z,6.82
2024-02-12T22:25:40.721Z,6.79
2024-02-12T22:28:08.958Z,6.75
2024-02-12T22:30:36.216Z,6.72
2024-02-12T22:33:09.552Z,6.68
2024-02-12T22:35:36.814Z,6.64
2024-02-12T22:38:04.776Z,6.60
2024-02-12T22:40:31.743Z,6.56
2024-02-12T22:42:58.158Z,6.53
2024-02-12T22:45:28.058Z,6.49
2024-02-12T22:47:58.143Z,6.46
2024-02-12T22:50:28.843Z,6.42
2024-02-12T22:52:55.532Z,6.40
2024-02-12T22:55:23.249Z,6.37
2024-02-12T22:57:49.738Z,6.35
2024-02-12T23:00:17.513Z,6.35
2024-02-12T23:02:44.003Z,6.37
2024-02-12T23:05:11.523Z,6.39
2024-02-12T23:07:38.118Z,6.43
2024-02-12T23:10:04.955Z,6.48
2024-02-12T23:12:31.408Z,6.51
2024-02-12T23:15:00.810Z,6.56
2024-02-12T23:17:28.409Z,6.60
2024-02-12T23:19:58.952Z,6.63
2024-02-12T23:22:25.948Z,6.65
2024-02-12T23:24:52.540Z,6.65
2024-02-12T23:27:19.310Z,6.65
2024-02-12T23:29:46.215Z,6.63
2024-02-12T23:32:15.665Z,6.61
2024-02-12T23:34:42.470Z,6.59
2024-02-12T23:37:10.407Z,6.58
2024-02-12T23:39:37.226Z,6.55
2024-02-12T23:42:06.019Z,6.53
2024-02-12T23:44:33.290Z,6.51
2024-02-12T23:47:00.369Z,6.49
2024-02-12T23:49:28.177Z,6.48
2024-02-12T23:51:55.272Z,6.48
2024-02-12T23:54:21.758Z,6.48
2024-02-12T23:56:48.433Z,6.47
2024-02-12T23:59:15.074Z,6.48
